createdAt,value
2018-02-11T00:01:30.637Z,94.90
2018-02-11T00:03:58.578Z,95.10
2018-02-11T00:06:26.907Z,94.60
2018-02-11T00:08:54.444Z,94.60
2018-02-11T00:11:22.191Z,94.90
2018-02-11T00:13:49.753Z,94.60
2018-02-11T00:16:17.279Z,94.30
2018-02-11T00:18:44.807Z,94.30
2018-02-11T00:21:12.975Z,94.20
2018-02-11T00:23:40.507Z,94.30
2018-02-11T00:26:08.039Z,94.40
2018-02-11T00:28:35.640Z,94.00
2018-02-11T00:31:03.171Z,94.20
2018-02-11T00:33:31.476Z,94.20
2018-02-11T00:35:59.040Z,94.20
2018-02-11T00:38:26.575Z,94.50
2018-02-11T00:40:54.876Z,94.70
2018-02-11T00:43:23.175Z,94.70
2018-02-11T00:45:50.711Z,94.70
2018-02-11T00:48:18.251Z,94.70
2018-02-11T00:50:45.823Z,94.90
2018-02-11T00:53:15.540Z,95.00
2018-02-11T00:55:43.070Z,95.00
2018-02-11T00:58:10.626Z,94.50
2018-02-11T01:00:38.932Z,94.50
2018-02-11T01:03:06.466Z,94.50
2018-02-11T01:05:34.618Z,94.70
2018-02-11T01:08:02.146Z,94.30
2018-02-11T01:10:29.678Z,93.80
2018-02-11T01:12:57.275Z,94.10
2018-02-11T01:15:24.805Z,94.20
2018-02-11T01:17:52.339Z,94.00
2018-02-11T01:20:19.902Z,94.20
2018-02-11T01:22:47.445Z,94.40
2018-02-11T01:25:17.350Z,94.20
2018-02-11T01:27:45.390Z,94.20
2018-02-11T01:30:13.857Z,93.70
2018-02-11T01:32:41.395Z,93.80
2018-02-11T01:35:08.964Z,94.10
2018-02-11T01:37:36.506Z,94.10
2018-02-11T01:40:04.816Z,94.00
2018-02-11T01:42:33.168Z,94.20
2018-02-11T01:45:00.731Z,94.20
2018-02-11T01:47:28.319Z,94.20
2018-02-11T01:50:07.743Z,94.20
2018-02-11T01:52:35.270Z,94.10
2018-02-11T01:55:03.571Z,94.00
2018-02-11T01:57:31.132Z,94.00
2018-02-11T01:59:58.671Z,94.10
2018-02-11T02:02:26.975Z,93.80
2018-02-11T02:04:54.549Z,93.80
2018-02-11T02:07:22.502Z,94.00
2018-02-11T02:09:50.039Z,94.00
2018-02-11T02:12:18.179Z,93.90
2018-02-11T02:14:45.715Z,93.80
2018-02-11T02:17:15.411Z,93.80
2018-02-11T02:19:42.967Z,93.80
2018-02-11T02:22:10.503Z,94.10
2018-02-11T02:24:38.802Z,94.00
2018-02-11T02:27:06.475Z,94.00
2018-02-11T02:29:34.019Z,94.20
2018-02-11T02:32:01.554Z,94.40
2018-02-11T02:34:29.184Z,94.40
2018-02-11T02:36:56.715Z,94.30
2018-02-11T02:39:24.246Z,94.30
2018-02-11T02:41:51.803Z,94.40
2018-02-11T02:44:19.348Z,94.40
2018-02-11T02:46:46.883Z,94.30
2018-02-11T02:49:16.370Z,94.10
2018-02-11T02:51:43.903Z,94.10
2018-02-11T02:54:11.442Z,94.20
2018-02-11T02:56:39.380Z,94.20
2018-02-11T02:59:06.911Z,94.20
2018-02-11T03:01:34.447Z,94.20
2018-02-11T03:04:01.999Z,94.20
2018-02-11T03:06:29.543Z,94.10
2018-02-11T03:08:58.447Z,94.10
2018-02-11T03:11:26.003Z,94.10
2018-02-11T03:13:54.299Z,94.60
2018-02-11T03:16:21.840Z,94.60
2018-02-11T03:18:50.643Z,94.50
2018-02-11T03:21:18.187Z,94.50
2018-02-11T03:23:45.727Z,94.40
2018-02-11T03:26:15.395Z,94.40
2018-02-11T03:28:42.923Z,94.40
2018-02-11T03:31:10.475Z,94.50
2018-02-11T03:33:38.040Z,94.40
2018-02-11T03:36:06.347Z,94.80
2018-02-11T03:38:33.879Z,94.80
2018-02-11T03:41:02.563Z,95.00
2018-02-11T03:43:30.867Z,95.20
2018-02-11T03:45:59.167Z,95.20
2018-02-11T03:48:26.734Z,95.20
2018-02-11T03:50:54.274Z,95.30
2018-02-11T03:53:21.806Z,95.30
2018-02-11T03:55:49.372Z,95.40
2018-02-11T03:58:16.914Z,95.60
2018-02-11T04:00:45.221Z,96.00
2018-02-11T04:03:12.850Z,96.00
2018-02-11T04:05:40.387Z,95.90
2018-02-11T04:08:07.922Z,95.90
2018-02-11T04:10:36.286Z,95.90
2018-02-11T04:13:03.836Z,96.00
2018-02-11T04:15:31.379Z,95.90
2018-02-11T04:17:58.943Z,95.90
2018-02-11T04:20:26.479Z,95.90
2018-02-11T04:22:54.782Z,95.90
2018-02-11T04:25:22.895Z,95.80
2018-02-11T04:27:50.431Z,95.70
2018-02-11T04:30:17.971Z,95.50
2018-02-11T04:32:45.540Z,95.60
2018-02-11T04:35:15.447Z,95.80
2018-02-11T04:37:43.201Z,95.80
2018-02-11T04:40:10.767Z,95.70
2018-02-11T04:42:39.075Z,95.70
2018-02-11T04:45:06.611Z,95.70
2018-02-11T04:47:34.571Z,95.50
2018-02-11T04:50:02.124Z,95.60
2018-02-11T04:52:29.703Z,95.60
2018-02-11T04:54:57.272Z,95.50
2018-02-11T04:57:24.795Z,95.50
2018-02-11T04:59:53.095Z,95.10
2018-02-11T05:02:20.664Z,95.30
2018-02-11T05:04:48.196Z,95.40
2018-02-11T05:07:16.446Z,95.20
2018-02-11T05:09:44.486Z,95.10
2018-02-11T05:12:12.451Z,95.10
2018-02-11T05:14:39.983Z,95.00
2018-02-11T05:17:08.312Z,95.00
2018-02-11T05:19:35.850Z,95.00
2018-02-11T05:22:03.395Z,95.10
2018-02-11T05:24:30.960Z,95.20
2018-02-11T05:26:58.503Z,95.40
2018-02-11T05:29:26.816Z,95.50
2018-02-11T05:31:54.695Z,95.50
2018-02-11T05:34:22.261Z,95.50
2018-02-11T05:36:49.808Z,95.70
2018-02-11T05:39:17.366Z,95.80
2018-02-11T05:41:44.919Z,95.80
2018-02-11T05:44:12.464Z,95.90
2018-02-11T05:46:40.184Z,95.80
2018-02-11T05:49:07.835Z,95.80
2018-02-11T05:51:36.227Z,95.90
2018-02-11T05:54:04.570Z,95.80
2018-02-11T05:56:32.108Z,95.80
2018-02-11T05:58:59.646Z,95.90
2018-02-11T06:01:27.228Z,96.00
2018-02-11T06:03:54.771Z,95.90
2018-02-11T06:06:22.354Z,96.00
2018-02-11T06:08:49.940Z,95.90
2018-02-11T06:11:17.506Z,96.10
2018-02-11T06:13:45.267Z,96.20
2018-02-11T06:16:13.839Z,96.30
2018-02-11T06:18:41.443Z,96.20
2018-02-11T06:21:09.107Z,96.20
2018-02-11T06:23:37.468Z,96.30
2018-02-11T06:26:05.013Z,96.20
2018-02-11T06:28:32.634Z,96.30
2018-02-11T06:31:01.131Z,96.40
2018-02-11T06:33:28.716Z,96.40
2018-02-11T06:35:57.050Z,96.40
2018-02-11T06:38:24.859Z,96.40
2018-02-11T06:40:52.398Z,96.40
2018-02-11T06:43:19.946Z,96.30
2018-02-11T06:45:47.511Z,96.50
2018-02-11T06:48:17.278Z,96.40
2018-02-11T06:50:44.815Z,96.40
2018-02-11T06:53:12.374Z,96.20
2018-02-11T06:55:39.938Z,96.20
2018-02-11T06:58:07.622Z,96.10
2018-02-11T07:00:35.951Z,95.80
2018-02-11T07:03:03.483Z,95.20
2018-02-11T07:05:31.034Z,95.00
2018-02-11T07:07:59.374Z,95.00
2018-02-11T07:13:29.553Z,95.10
2018-02-11T07:15:57.747Z,95.00
2018-02-11T07:18:25.417Z,94.90
2018-02-11T07:20:53.428Z,94.80
2018-02-11T07:23:20.963Z,94.80
2018-02-11T07:25:48.506Z,95.10
2018-02-11T07:28:16.534Z,94.70
2018-02-11T07:30:44.878Z,94.60
2018-02-11T07:33:12.471Z,94.50
2018-02-11T07:35:40.052Z,94.40
2018-02-11T07:38:07.755Z,94.30
2018-02-11T07:40:35.454Z,94.30
2018-02-11T07:43:03.103Z,94.20
2018-02-11T07:45:30.655Z,94.20
2018-02-11T07:47:58.203Z,94.00
2018-02-11T07:50:25.895Z,93.80
2018-02-11T07:52:53.466Z,93.80
2018-02-11T07:55:21.762Z,93.80
2018-02-11T07:57:49.403Z,93.50
2018-02-11T08:00:16.947Z,93.30
2018-02-11T08:02:44.496Z,93.00
2018-02-11T08:05:12.263Z,92.70
2018-02-11T08:07:39.811Z,92.40
2018-02-11T08:10:07.343Z,91.90
2018-02-11T08:12:34.911Z,91.60
2018-02-11T08:15:02.532Z,91.20
2018-02-11T08:17:31.068Z,89.30
2018-02-11T08:19:58.627Z,89.30
2018-02-11T08:22:26.269Z,87.00
2018-02-11T08:24:54.630Z,80.40
2018-02-11T08:27:23.359Z,74.20
2018-02-11T08:29:50.899Z,70.40
2018-02-11T08:32:18.435Z,66.80
2018-02-11T08:34:46.003Z,64.60
2018-02-11T08:37:25.673Z,58.70
2018-02-11T08:43:34.904Z,54.30
2018-02-11T08:46:02.436Z,54.60
2018-02-11T08:48:30.288Z,54.50
2018-02-11T08:50:57.846Z,55.10
2018-02-11T08:53:25.384Z,56.40
2018-02-11T08:55:52.951Z,57.30
2018-02-11T08:58:20.523Z,59.50
2018-02-11T09:00:48.059Z,62.50
2018-02-11T09:03:16.471Z,63.70
2018-02-11T09:05:44.623Z,66.00
2018-02-11T09:08:12.162Z,67.50
2018-02-11T09:10:39.690Z,69.00
2018-02-11T09:13:09.180Z,71.40
2018-02-11T09:15:37.522Z,74.20
2018-02-11T09:18:05.485Z,74.00
2018-02-11T09:20:40.566Z,74.70
2018-02-11T09:23:08.871Z,74.20
2018-02-11T09:25:36.528Z,74.20
2018-02-11T09:28:04.642Z,74.40
2018-02-11T09:30:32.189Z,74.40
2018-02-11T09:32:59.794Z,75.10
2018-02-11T09:35:27.390Z,73.50
2018-02-11T09:37:54.948Z,71.00
2018-02-11T09:40:22.500Z,69.50
2018-02-11T09:42:50.068Z,69.10
2018-02-11T09:45:17.622Z,69.50
2018-02-11T09:47:45.163Z,69.30
2018-02-11T09:50:15.017Z,63.60
2018-02-11T09:52:42.571Z,63.40
2018-02-11T09:55:10.126Z,62.60
2018-02-11T09:57:37.694Z,62.30
2018-02-11T10:00:06.088Z,63.40
2018-02-11T10:02:33.629Z,63.20
2018-02-11T10:05:01.220Z,63.10
2018-02-11T10:07:28.762Z,59.50
2018-02-11T10:09:56.299Z,57.50
2018-02-11T10:12:24.648Z,56.50
2018-02-11T10:14:52.947Z,56.10
2018-02-11T10:17:20.489Z,56.10
2018-02-11T10:19:48.224Z,55.30
2018-02-11T10:22:17.271Z,57.70
2018-02-11T10:24:44.811Z,57.70
2018-02-11T10:27:14.065Z,57.20
2018-02-11T10:29:41.607Z,57.10
2018-02-11T10:32:09.144Z,57.10
2018-02-11T10:34:37.359Z,58.10
2018-02-11T10:37:04.904Z,58.40
2018-02-11T10:39:32.447Z,58.20
2018-02-11T10:42:01.555Z,58.50
2018-02-11T10:44:29.087Z,59.90
2018-02-11T10:46:57.525Z,61.30
2018-02-11T10:49:25.090Z,61.20
2018-02-11T10:51:52.627Z,60.50
2018-02-11T10:54:20.945Z,60.80
2018-02-11T10:56:48.580Z,60.70
2018-02-11T10:59:17.236Z,62.20
2018-02-11T11:01:45.855Z,62.20
2018-02-11T11:04:24.489Z,61.80
2018-02-11T11:09:47.173Z,61.50
2018-02-11T11:12:16.438Z,62.40
2018-02-11T11:14:43.976Z,61.00
2018-02-11T11:17:12.372Z,59.50
2018-02-11T11:19:39.906Z,60.20
2018-02-11T11:22:07.942Z,60.30
2018-02-11T11:24:36.263Z,62.10
2018-02-11T11:27:03.799Z,62.00
2018-02-11T11:29:31.400Z,61.20
2018-02-11T11:31:58.968Z,61.40
2018-02-11T11:34:26.506Z,61.80
2018-02-11T11:36:54.061Z,63.20
2018-02-11T11:39:21.834Z,64.30
2018-02-11T11:41:49.379Z,66.40
2018-02-11T11:44:16.911Z,65.40
2018-02-11T11:46:44.652Z,64.50
2018-02-11T11:49:12.310Z,64.10
2018-02-11T11:51:39.844Z,65.40
2018-02-11T11:54:07.431Z,62.70
2018-02-11T11:56:34.974Z,65.70
2018-02-11T11:59:02.512Z,67.20
2018-02-11T12:01:30.599Z,68.70
2018-02-11T12:03:58.141Z,77.00
2018-02-11T12:06:25.957Z,81.00
2018-02-11T12:08:53.586Z,85.20
2018-02-11T12:11:21.187Z,86.00
2018-02-11T12:13:49.906Z,86.50
2018-02-11T12:16:17.488Z,87.20
2018-02-11T12:18:45.026Z,86.20
2018-02-11T12:21:12.576Z,85.50
2018-02-11T12:23:42.023Z,82.80
2018-02-11T12:26:09.575Z,83.50
2018-02-11T12:28:37.109Z,83.50
2018-02-11T12:31:04.679Z,81.90
2018-02-11T12:33:32.215Z,80.20
2018-02-11T12:35:59.789Z,80.30
2018-02-11T12:38:27.359Z,79.30
2018-02-11T12:40:54.888Z,79.40
2018-02-11T12:43:23.191Z,79.20
2018-02-11T12:45:50.828Z,79.20
2018-02-11T12:48:18.366Z,81.60
2018-02-11T12:50:45.943Z,80.60
2018-02-11T12:53:15.392Z,79.30
2018-02-11T12:55:42.936Z,79.40
2018-02-11T12:58:10.481Z,80.70
2018-02-11T13:00:38.041Z,80.80
2018-02-11T13:03:05.580Z,81.20
2018-02-11T13:05:33.151Z,81.90
2018-02-11T13:08:00.990Z,79.70
2018-02-11T13:10:28.588Z,80.10
2018-02-11T13:12:56.128Z,80.80
2018-02-11T13:15:24.593Z,81.90
2018-02-11T13:17:52.143Z,81.80
2018-02-11T13:20:19.684Z,81.80
2018-02-11T13:22:47.255Z,81.80
2018-02-11T13:25:22.202Z,83.60
2018-02-11T13:27:49.840Z,83.70
2018-02-11T13:30:17.386Z,83.00
2018-02-11T13:32:45.020Z,85.00
2018-02-11T13:35:12.595Z,86.70
2018-02-11T13:37:40.164Z,89.00
2018-02-11T13:40:07.743Z,89.90
2018-02-11T13:42:35.410Z,87.80
2018-02-11T13:45:02.970Z,87.20
2018-02-11T13:47:30.511Z,87.10
2018-02-11T13:49:58.144Z,88.20
2018-02-11T13:52:25.700Z,89.30
2018-02-11T13:54:53.225Z,89.80
2018-02-11T13:57:20.793Z,90.50
2018-02-11T13:59:48.396Z,90.60
2018-02-11T14:02:16.423Z,90.80
2018-02-11T14:04:43.987Z,91.10
2018-02-11T14:07:11.524Z,91.60
2018-02-11T14:09:40.020Z,92.30
2018-02-11T14:12:07.989Z,92.60
2018-02-11T14:14:35.556Z,92.50
2018-02-11T14:17:03.952Z,93.70
2018-02-11T14:19:31.545Z,93.70
2018-02-11T14:21:59.949Z,94.10
2018-02-11T14:24:27.511Z,95.00
2018-02-11T14:26:55.317Z,94.90
2018-02-11T14:29:23.624Z,95.50
2018-02-11T14:31:51.175Z,95.50
2018-02-11T14:34:18.771Z,95.70
2018-02-11T14:36:47.623Z,96.00
2018-02-11T14:39:17.244Z,96.70
2018-02-11T14:41:44.822Z,96.70
2018-02-11T14:44:12.376Z,96.90
2018-02-11T14:46:39.939Z,96.90
2018-02-11T14:49:07.536Z,97.00
2018-02-11T14:51:35.120Z,97.10
2018-02-11T14:54:02.723Z,97.00
2018-02-11T14:56:30.753Z,97.20
2018-02-11T14:58:58.370Z,97.30
2018-02-11T15:01:27.221Z,98.00
2018-02-11T15:03:54.841Z,98.50
2018-02-11T15:06:22.460Z,99.10
2018-02-11T15:08:50.005Z,99.20
2018-02-11T15:11:18.417Z,99.50
2018-02-11T15:13:46.491Z,99.40
2018-02-11T15:16:26.021Z,99.90
2018-02-11T15:27:19.759Z,99.90
2018-02-11T15:29:48.531Z,99.90
2018-02-11T15:32:17.223Z,99.90
2018-02-11T15:34:45.205Z,99.90
2018-02-11T15:37:13.676Z,99.90
2018-02-11T15:39:43.518Z,99.90
2018-02-11T15:42:11.099Z,99.90
2018-02-11T15:44:39.455Z,99.90
2018-02-11T15:47:07.581Z,99.90
2018-02-11T15:49:37.151Z,99.90
2018-02-11T15:52:04.731Z,99.90
2018-02-11T15:54:32.308Z,99.90
2018-02-11T15:57:00.126Z,99.90
2018-02-11T15:59:27.679Z,99.90
2018-02-11T16:01:55.245Z,99.90
2018-02-11T16:04:22.834Z,99.90
2018-02-11T16:06:50.400Z,99.90
2018-02-11T16:09:17.959Z,99.90
2018-02-11T16:11:47.080Z,99.90
2018-02-11T16:14:16.283Z,99.90
2018-02-11T16:16:43.843Z,99.90
2018-02-11T16:19:11.497Z,99.90
2018-02-11T16:21:39.094Z,99.90
2018-02-11T16:24:06.692Z,99.90
2018-02-11T16:26:34.413Z,99.90
2018-02-11T16:29:02.740Z,99.90
2018-02-11T16:31:31.026Z,99.90
2018-02-11T16:33:58.808Z,99.90
2018-02-11T16:36:26.499Z,99.90
2018-02-11T16:38:54.919Z,99.90
2018-02-11T16:41:23.101Z,99.90
2018-02-11T16:43:50.946Z,99.90
2018-02-11T16:46:19.611Z,99.90
2018-02-11T16:48:47.548Z,99.90
2018-02-11T16:51:17.472Z,99.90
2018-02-11T16:53:45.130Z,99.90
2018-02-11T16:58:46.636Z,99.90
2018-02-11T17:01:15.824Z,99.90
2018-02-11T17:03:43.384Z,99.90
2018-02-11T17:06:10.935Z,99.90
2018-02-11T17:08:38.499Z,99.90
2018-02-11T17:11:06.048Z,99.90
2018-02-11T17:13:34.280Z,99.90
2018-02-11T17:16:01.831Z,99.90
2018-02-11T17:18:30.134Z,99.90
2018-02-11T17:20:57.667Z,99.90
2018-02-11T17:23:26.306Z,99.90
2018-02-11T17:25:53.902Z,99.90
2018-02-11T17:28:21.436Z,99.90
2018-02-11T17:30:49.276Z,99.90
2018-02-11T17:33:16.820Z,99.90
2018-02-11T17:35:44.364Z,99.90
2018-02-11T17:38:12.700Z,99.90
2018-02-11T17:40:40.244Z,99.90
2018-02-11T17:43:09.581Z,99.90
2018-02-11T17:45:37.323Z,99.90
2018-02-11T17:48:06.813Z,99.90
2018-02-11T17:50:35.005Z,99.90
2018-02-11T17:53:02.571Z,99.90
2018-02-11T17:55:30.099Z,99.90
2018-02-11T17:57:57.635Z,99.90
2018-02-11T18:00:25.190Z,99.90
2018-02-11T18:02:53.494Z,99.90
2018-02-11T18:05:21.042Z,99.90
2018-02-11T18:07:48.638Z,99.90
2018-02-11T18:10:16.535Z,99.90
2018-02-11T18:12:45.040Z,99.90
2018-02-11T18:15:12.612Z,99.90
2018-02-11T18:17:41.005Z,99.90
2018-02-11T18:20:08.544Z,99.90
2018-02-11T18:22:36.180Z,99.90
2018-02-11T18:25:07.849Z,99.90
2018-02-11T18:27:36.161Z,99.90
2018-02-11T18:30:04.872Z,99.90
2018-02-11T18:32:32.896Z,99.90
2018-02-11T18:35:00.443Z,99.90
2018-02-11T18:37:28.771Z,99.90
2018-02-11T18:39:56.302Z,99.90
2018-02-11T18:42:23.839Z,99.90
2018-02-11T18:44:52.175Z,99.90
2018-02-11T18:47:19.721Z,99.90
2018-02-11T18:49:49.240Z,99.90
2018-02-11T18:52:17.017Z,99.90
2018-02-11T18:54:44.575Z,99.90
2018-02-11T18:57:24.318Z,99.90
2018-02-11T18:59:51.875Z,99.90
2018-02-11T19:02:19.423Z,99.90
2018-02-11T19:04:47.259Z,99.90
2018-02-11T19:07:17.195Z,99.90
2018-02-11T19:09:44.745Z,99.90
2018-02-11T19:12:12.354Z,99.90
2018-02-11T19:14:40.795Z,99.90
2018-02-11T19:17:12.357Z,99.90
2018-02-11T19:25:26.108Z,99.90
2018-02-11T19:27:53.807Z,99.90
2018-02-11T19:30:21.355Z,99.90
2018-02-11T19:32:49.641Z,99.90
2018-02-11T19:35:17.182Z,99.90
2018-02-11T19:37:44.753Z,99.90
2018-02-11T19:40:14.901Z,99.90
2018-02-11T19:42:42.451Z,99.90
2018-02-11T19:45:10.013Z,99.90
2018-02-11T19:47:37.579Z,99.90
2018-02-11T19:50:05.137Z,99.90
2018-02-11T19:52:33.598Z,99.90
2018-02-11T19:55:01.246Z,99.90
2018-02-11T19:57:28.846Z,99.90
2018-02-11T19:59:56.479Z,99.90
2018-02-11T20:02:24.045Z,99.90
2018-02-11T20:04:51.598Z,99.90
2018-02-11T20:07:19.145Z,99.90
2018-02-11T20:09:46.723Z,99.90
2018-02-11T20:12:26.467Z,99.90
2018-02-11T20:17:14.691Z,99.90
2018-02-11T20:19:42.999Z,99.90
2018-02-11T20:22:10.539Z,99.90
2018-02-11T20:24:38.105Z,99.90
2018-02-11T20:27:05.639Z,99.90
2018-02-11T20:29:33.952Z,99.90
2018-02-11T20:32:01.511Z,99.90
2018-02-11T20:34:30.012Z,99.90
2018-02-11T20:36:57.551Z,99.90
2018-02-11T20:39:26.431Z,99.90
2018-02-11T20:41:54.847Z,99.90
2018-02-11T20:44:22.428Z,99.90
2018-02-11T20:46:50.055Z,99.90
2018-02-11T20:49:17.607Z,99.90
2018-02-11T20:51:45.525Z,99.90
2018-02-11T20:54:15.648Z,99.90
2018-02-11T20:56:43.384Z,99.90
2018-02-11T20:59:12.568Z,99.90
2018-02-11T21:01:40.340Z,99.90
2018-02-11T21:04:08.477Z,99.90
2018-02-11T21:06:37.230Z,99.90
2018-02-11T21:09:05.611Z,99.90
2018-02-11T21:11:33.150Z,99.90
2018-02-11T21:14:00.688Z,99.90
2018-02-11T21:16:28.256Z,99.90
2018-02-11T21:18:55.795Z,99.90
2018-02-11T21:21:23.335Z,99.90
2018-02-11T21:23:51.483Z,99.90
2018-02-11T21:26:19.015Z,99.90
2018-02-11T21:28:46.555Z,99.90
2018-02-11T21:31:16.410Z,99.90
2018-02-11T21:33:44.019Z,99.90
2018-02-11T21:36:11.967Z,99.90
2018-02-11T21:38:39.559Z,99.90
2018-02-11T21:41:07.148Z,99.90
2018-02-11T21:43:34.713Z,99.90
2018-02-11T21:46:02.615Z,99.90
2018-02-11T21:48:30.939Z,99.90
2018-02-11T21:50:58.492Z,99.90
2018-02-11T21:53:26.095Z,99.90
2018-02-11T21:55:54.426Z,99.90
2018-02-11T21:58:21.974Z,99.90
2018-02-11T22:00:49.578Z,99.90
2018-02-11T22:03:17.139Z,99.90
2018-02-11T22:05:44.687Z,99.90
2018-02-11T22:08:12.771Z,99.90
2018-02-11T22:10:41.396Z,99.90
2018-02-11T22:13:09.708Z,99.90
2018-02-11T22:15:37.283Z,99.90
2018-02-11T22:18:04.827Z,99.90
2018-02-11T22:20:32.445Z,99.90
2018-02-11T22:23:00.803Z,99.90
2018-02-11T22:25:28.371Z,99.90
2018-02-11T22:27:55.938Z,99.90
2018-02-11T22:30:23.762Z,99.90
2018-02-11T22:32:51.299Z,99.90
2018-02-11T22:35:19.529Z,99.90
2018-02-11T22:37:47.552Z,99.90
2018-02-11T22:40:16.456Z,99.90
2018-02-11T22:42:44.102Z,99.90
2018-02-11T22:45:11.839Z,99.90
2018-02-11T22:47:39.375Z,99.90
2018-02-11T22:50:06.948Z,99.90
2018-02-11T22:52:34.732Z,99.90
2018-02-11T22:55:02.263Z,99.90
2018-02-11T22:57:29.831Z,99.90
2018-02-11T22:59:57.471Z,99.90
2018-02-11T23:02:25.037Z,99.90
2018-02-11T23:04:52.579Z,99.90
2018-02-11T23:07:20.318Z,99.90
2018-02-11T23:09:47.947Z,99.90
2018-02-11T23:12:17.263Z,99.90
2018-02-11T23:14:44.991Z,99.90
2018-02-11T23:17:12.674Z,99.90
2018-02-11T23:19:50.775Z,99.90
2018-02-11T23:22:19.070Z,99.90
2018-02-11T23:24:46.774Z,99.90
2018-02-11T23:27:15.751Z,99.90
2018-02-11T23:29:43.296Z,99.90
2018-02-11T23:32:10.928Z,99.90
2018-02-11T23:34:39.852Z,99.90
2018-02-11T23:37:07.406Z,99.90
2018-02-11T23:39:34.962Z,99.90
2018-02-11T23:42:02.528Z,99.90
2018-02-11T23:44:30.115Z,99.90
2018-02-11T23:46:57.691Z,99.90
2018-02-11T23:49:25.254Z,99.90
2018-02-11T23:51:54.268Z,99.90
2018-02-11T23:54:21.816Z,99.90
2018-02-11T23:56:49.883Z,99.90
2018-02-11T23:59:17.422Z,99.90
